Time;durP1;ratioP1;P1;durP2;ratioP2;P2;SDS_P1;SDS_P2;PMS_P1;PMS_P2;Temp;Humidity;BMP_temperature;BMP_pressure;BME280_temperature;BME280_humidity;BME280_pressure;Samples;Min_cycle;Max_cycle;Signal;HPM_P1;HPM_P2
2022/03/03 00:00:15;;;;;;;62.40;30.88;;;;;;;;;;5092909;28;20047;-69
2022/03/03 00:02:42;;;;;;;62.20;29.33;;;;;;;;;;5093535;28;20040;-69
2022/03/03 00:05:08;;;;;;;59.13;29.17;;;;;;;;;;5092262;28;20073;-69
2022/03/03 00:07:35;;;;;;;56.70;28.75;;;;;;;;;;5093058;28;20115;-69
2022/03/03 00:10:01;;;;;;;59.05;29.42;;;;;;;;;;5094342;28;20051;-69
2022/03/03 00:12:27;;;;;;;61.90;29.45;;;;;;;;;;5093358;28;20044;-69
2022/03/03 00:14:53;;;;;;;62.22;31.20;;;;;;;;;;5092869;28;20044;-69
2022/03/03 00:17:20;;;;;;;60.63;31.92;;;;;;;;;;5093000;28;20131;-69
2022/03/03 00:19:46;;;;;;;60.67;30.13;;;;;;;;;;5091307;28;20049;-69
2022/03/03 00:22:12;;;;;;;60.28;30.63;;;;;;;;;;5092764;28;20043;-69
2022/03/03 00:24:38;;;;;;;58.25;28.35;;;;;;;;;;5092580;28;20058;-69
2022/03/03 00:27:05;;;;;;;58.40;30.63;;;;;;;;;;5075575;28;20115;-69
2022/03/03 00:29:32;;;;;;;57.17;29.10;;;;;;;;;;5072102;28;20425;-69
2022/03/03 00:31:58;;;;;;;60.15;29.77;;;;;;;;;;5073568;28;20106;-69
2022/03/03 00:34:24;;;;;;;64.60;30.27;;;;;;;;;;5071590;28;20523;-69
2022/03/03 00:36:50;;;;;;;62.58;29.88;;;;;;;;;;5073296;28;20040;-69
2022/03/03 00:39:16;;;;;;;59.60;28.98;;;;;;;;;;5073324;28;20041;-69
2022/03/03 00:41:43;;;;;;;55.83;28.10;;;;;;;;;;5072604;28;20056;-69
2022/03/03 00:44:10;;;;;;;55.90;27.92;;;;;;;;;;5072279;28;20395;-69
2022/03/03 00:46:39;;;;;;;55.38;28.02;;;;;;;;;;5073116;28;20047;-69
2022/03/03 00:49:05;;;;;;;65.35;29.20;;;;;;;;;;5071498;28;20048;-69
2022/03/03 00:51:32;;;;;;;58.53;29.75;;;;;;;;;;5071788;28;20071;-69
2022/03/03 00:53:58;;;;;;;54.88;28.27;;;;;;;;;;5072034;28;20052;-69
2022/03/03 00:56:24;;;;;;;62.60;29.20;;;;;;;;;;5072471;28;20087;-69
2022/03/03 00:58:50;;;;;;;59.53;29.00;;;;;;;;;;5072764;28;20487;-69
2022/03/03 01:01:16;;;;;;;64.05;30.60;;;;;;;;;;5073173;28;20476;-69
2022/03/03 01:03:42;;;;;;;58.15;29.67;;;;;;;;;;5070582;28;20047;-69
2022/03/03 01:06:09;;;;;;;62.92;30.25;;;;;;;;;;5071767;28;20051;-69
2022/03/03 01:08:35;;;;;;;55.53;29.80;;;;;;;;;;5071489;28;20379;-69
2022/03/03 01:11:02;;;;;;;60.38;29.95;;;;;;;;;;5070548;28;20089;-69
2022/03/03 01:13:28;;;;;;;59.22;29.45;;;;;;;;;;5071372;28;20052;-69
2022/03/03 01:15:54;;;;;;;58.30;28.27;;;;;;;;;;5072344;28;20380;-69
2022/03/03 01:18:20;;;;;;;60.47;29.02;;;;;;;;;;5070560;28;20051;-69
2022/03/03 01:20:47;;;;;;;61.50;30.23;;;;;;;;;;5054464;28;20076;-69
2022/03/03 01:23:13;;;;;;;62.25;30.77;;;;;;;;;;5072552;28;20036;-69
2022/03/03 01:25:39;;;;;;;61.88;29.17;;;;;;;;;;5074674;28;20454;-69
2022/03/03 01:28:05;;;;;;;56.67;27.98;;;;;;;;;;5092603;28;20036;-69
2022/03/03 01:30:31;;;;;;;59.50;28.88;;;;;;;;;;5091093;28;20048;-69
2022/03/03 01:32:57;;;;;;;57.95;28.88;;;;;;;;;;5089353;28;20036;-69
2022/03/03 01:35:23;;;;;;;55.58;29.02;;;;;;;;;;5092565;28;20044;-69
2022/03/03 01:37:50;;;;;;;58.45;29.70;;;;;;;;;;5091328;28;20367;-69
2022/03/03 01:40:16;;;;;;;60.63;30.40;;;;;;;;;;5090609;28;20449;-69
2022/03/03 01:42:42;;;;;;;58.15;29.40;;;;;;;;;;5090849;28;20062;-69
2022/03/03 01:45:08;;;;;;;58.45;29.05;;;;;;;;;;5090961;28;20036;-69
2022/03/03 01:47:35;;;;;;;60.13;29.83;;;;;;;;;;5092509;28;20040;-69
2022/03/03 01:50:01;;;;;;;59.45;28.00;;;;;;;;;;5090713;28;20097;-69
2022/03/03 01:52:27;;;;;;;58.88;28.33;;;;;;;;;;5092304;28;20074;-69
2022/03/03 01:54:53;;;;;;;60.45;30.15;;;;;;;;;;5092312;28;20036;-69
2022/03/03 01:57:20;;;;;;;61.15;30.02;;;;;;;;;;5090388;28;20047;-69
2022/03/03 01:59:46;;;;;;;58.75;29.15;;;;;;;;;;5090870;28;20055;-69
2022/03/03 02:02:13;;;;;;;60.92;30.60;;;;;;;;;;5091844;28;20043;-69
2022/03/03 02:04:39;;;;;;;60.50;30.10;;;;;;;;;;5089089;28;20078;-69
2022/03/03 02:07:06;;;;;;;59.72;28.80;;;;;;;;;;5092233;28;20040;-69
2022/03/03 02:09:32;;;;;;;62.13;30.42;;;;;;;;;;5090536;28;20043;-69
2022/03/03 02:11:58;;;;;;;55.80;28.88;;;;;;;;;;5091344;28;20592;-69
2022/03/03 02:14:24;;;;;;;60.45;28.67;;;;;;;;;;5090785;28;20052;-69
2022/03/03 02:16:51;;;;;;;63.90;29.85;;;;;;;;;;5091869;28;20048;-69
2022/03/03 02:19:20;;;;;;;59.20;28.75;;;;;;;;;;5089883;28;20052;-69
2022/03/03 02:21:51;;;;;;;60.92;29.50;;;;;;;;;;5090743;28;20056;-69
2022/03/03 02:24:18;;;;;;;60.38;28.45;;;;;;;;;;5090479;28;20066;-69
2022/03/03 02:26:44;;;;;;;58.55;28.77;;;;;;;;;;5077789;28;20064;-69
2022/03/03 02:29:10;;;;;;;62.45;29.90;;;;;;;;;;5070045;28;20143;-69
2022/03/03 02:31:36;;;;;;;59.33;28.45;;;;;;;;;;5069823;28;20044;-69
2022/03/03 02:34:03;;;;;;;57.55;29.90;;;;;;;;;;5070807;28;20040;-69
2022/03/03 02:36:29;;;;;;;63.63;29.88;;;;;;;;;;5069877;28;20036;-69
2022/03/03 02:39:00;;;;;;;61.17;29.55;;;;;;;;;;5069944;28;20044;-69
2022/03/03 02:41:26;;;;;;;57.17;28.83;;;;;;;;;;5070868;28;20037;-69
2022/03/03 02:43:52;;;;;;;57.08;26.67;;;;;;;;;;5073976;28;20036;-69
2022/03/03 02:46:18;;;;;;;66.50;28.58;;;;;;;;;;5077887;28;20068;-69
2022/03/03 02:48:44;;;;;;;56.95;28.15;;;;;;;;;;5075919;28;20063;-69
2022/03/03 02:51:10;;;;;;;60.83;30.67;;;;;;;;;;5077792;28;20044;-69
2022/03/03 02:53:37;;;;;;;61.50;30.00;;;;;;;;;;5076532;28;20044;-69
2022/03/03 02:56:05;;;;;;;61.45;30.05;;;;;;;;;;5075783;28;20047;-69
2022/03/03 02:58:31;;;;;;;61.10;29.40;;;;;;;;;;5076598;28;20121;-69
2022/03/03 03:00:57;;;;;;;58.78;27.88;;;;;;;;;;5076208;28;20040;-69
2022/03/03 03:03:24;;;;;;;59.83;29.77;;;;;;;;;;5075622;28;20067;-69
2022/03/03 03:05:50;;;;;;;55.55;28.25;;;;;;;;;;5076367;28;20063;-69
2022/03/03 03:08:16;;;;;;;61.10;28.55;;;;;;;;;;5076413;28;20115;-69
2022/03/03 03:10:43;;;;;;;60.25;28.40;;;;;;;;;;5075880;28;20129;-69
2022/03/03 03:13:12;;;;;;;57.80;28.15;;;;;;;;;;5077886;28;20063;-69
2022/03/03 03:15:39;;;;;;;60.97;27.15;;;;;;;;;;5076574;28;20522;-69
2022/03/03 03:18:16;;;;;;;61.20;29.77;;;;;;;;;;5075943;28;20090;-69
2022/03/03 03:20:42;;;;;;;57.95;27.58;;;;;;;;;;5076205;28;20041;-69
2022/03/03 03:23:09;;;;;;;56.72;27.85;;;;;;;;;;5076428;28;20033;-69
2022/03/03 03:25:39;;;;;;;55.28;28.05;;;;;;;;;;5080532;28;20104;-69
2022/03/03 03:28:06;;;;;;;58.08;28.92;;;;;;;;;;5096329;28;20036;-69
2022/03/03 03:30:32;;;;;;;59.38;28.15;;;;;;;;;;5096425;28;20371;-69
2022/03/03 03:32:58;;;;;;;57.30;27.95;;;;;;;;;;5095607;28;20139;-69
2022/03/03 03:35:25;;;;;;;56.45;28.77;;;;;;;;;;5096391;28;20623;-69
2022/03/03 03:37:52;;;;;;;60.35;27.98;;;;;;;;;;5096335;28;20062;-69
2022/03/03 03:40:19;;;;;;;53.63;27.48;;;;;;;;;;5095804;28;20039;-69
2022/03/03 03:42:45;;;;;;;58.65;28.33;;;;;;;;;;5096482;28;20044;-69
2022/03/03 03:45:11;;;;;;;56.13;28.55;;;;;;;;;;5096505;28;20050;-69
2022/03/03 03:47:37;;;;;;;58.60;28.52;;;;;;;;;;5097231;28;20122;-69
2022/03/03 03:50:04;;;;;;;60.67;30.23;;;;;;;;;;5096747;28;20485;-69
2022/03/03 03:52:30;;;;;;;53.97;27.35;;;;;;;;;;5097577;28;20112;-69
2022/03/03 03:54:57;;;;;;;59.45;27.80;;;;;;;;;;5094608;28;20083;-69
2022/03/03 03:57:23;;;;;;;54.35;27.33;;;;;;;;;;5093398;28;20047;-69
2022/03/03 03:59:49;;;;;;;57.58;28.38;;;;;;;;;;5092615;28;20047;-69
2022/03/03 04:02:15;;;;;;;53.30;27.10;;;;;;;;;;5092412;28;20760;-69
2022/03/03 04:04:41;;;;;;;55.38;28.98;;;;;;;;;;5092867;28;20043;-69
2022/03/03 04:07:07;;;;;;;55.63;28.00;;;;;;;;;;5092836;28;20132;-69
2022/03/03 04:09:33;;;;;;;57.38;28.30;;;;;;;;;;5093522;28;20055;-69
2022/03/03 04:11:59;;;;;;;57.00;27.38;;;;;;;;;;5092768;28;20048;-69
2022/03/03 04:14:25;;;;;;;55.15;27.25;;;;;;;;;;5092921;28;20082;-68
2022/03/03 04:16:51;;;;;;;58.35;27.70;;;;;;;;;;5092067;28;20044;-68
2022/03/03 04:19:19;;;;;;;56.05;26.75;;;;;;;;;;5092602;28;20097;-68
2022/03/03 04:21:45;;;;;;;56.25;27.55;;;;;;;;;;5092746;28;20487;-69
2022/03/03 04:24:11;;;;;;;54.03;27.50;;;;;;;;;;5092005;28;20094;-69
2022/03/03 04:26:37;;;;;;;54.60;26.63;;;;;;;;;;5080087;28;20045;-69
2022/03/03 04:29:03;;;;;;;53.75;27.27;;;;;;;;;;5072124;28;20059;-69
2022/03/03 04:31:29;;;;;;;58.47;27.77;;;;;;;;;;5071734;28;20131;-69
2022/03/03 04:33:56;;;;;;;53.38;26.80;;;;;;;;;;5072240;28;20383;-69
2022/03/03 04:36:23;;;;;;;52.10;27.17;;;;;;;;;;5071948;28;20041;-69
2022/03/03 04:38:50;;;;;;;57.95;27.65;;;;;;;;;;5071423;28;20067;-69
2022/03/03 04:41:16;;;;;;;55.30;27.13;;;;;;;;;;5072203;28;20056;-69
2022/03/03 04:43:42;;;;;;;52.85;26.55;;;;;;;;;;5073115;28;20037;-69
2022/03/03 04:46:09;;;;;;;56.40;27.08;;;;;;;;;;5071217;28;20041;-69
2022/03/03 04:48:35;;;;;;;49.03;26.35;;;;;;;;;;5071922;28;20036;-69
2022/03/03 04:51:01;;;;;;;55.25;26.60;;;;;;;;;;5073366;28;20127;-69
2022/03/03 04:53:28;;;;;;;52.63;27.58;;;;;;;;;;5071003;28;20044;-69
2022/03/03 04:55:54;;;;;;;54.53;28.23;;;;;;;;;;5073086;28;20037;-69
2022/03/03 04:58:20;;;;;;;52.33;26.35;;;;;;;;;;5071581;28;20122;-69
2022/03/03 05:00:47;;;;;;;50.13;25.73;;;;;;;;;;5070932;28;20198;-69
2022/03/03 05:03:13;;;;;;;52.75;27.13;;;;;;;;;;5071693;28;20043;-69
2022/03/03 05:05:39;;;;;;;49.22;25.55;;;;;;;;;;5071161;28;20044;-69
2022/03/03 05:08:05;;;;;;;47.45;24.17;;;;;;;;;;5070804;28;20050;-69
2022/03/03 05:10:32;;;;;;;51.08;26.05;;;;;;;;;;5072872;28;20041;-69
2022/03/03 05:12:58;;;;;;;49.47;26.63;;;;;;;;;;5071549;28;20051;-69
2022/03/03 05:15:24;;;;;;;48.15;25.95;;;;;;;;;;5070659;28;20075;-69
2022/03/03 05:17:50;;;;;;;51.63;26.23;;;;;;;;;;5054823;28;20071;-69
2022/03/03 05:20:16;;;;;;;49.63;25.77;;;;;;;;;;5054554;28;20531;-69
2022/03/03 05:22:43;;;;;;;47.72;23.88;;;;;;;;;;5071740;28;20039;-69
2022/03/03 05:25:12;;;;;;;49.58;24.95;;;;;;;;;;5071116;28;20082;-69
2022/03/03 05:27:40;;;;;;;48.15;24.75;;;;;;;;;;5091725;28;20043;-69
2022/03/03 05:30:07;;;;;;;48.30;24.15;;;;;;;;;;5090584;28;20371;-69
2022/03/03 05:32:33;;;;;;;46.35;23.63;;;;;;;;;;5091583;28;20131;-69
2022/03/03 05:34:59;;;;;;;45.60;23.73;;;;;;;;;;5091085;28;20044;-69
2022/03/03 05:37:25;;;;;;;43.10;23.60;;;;;;;;;;5090477;28;20056;-69
2022/03/03 05:39:52;;;;;;;46.67;23.50;;;;;;;;;;5091068;28;20044;-69
2022/03/03 05:42:20;;;;;;;49.00;24.10;;;;;;;;;;5090987;28;20067;-69
2022/03/03 05:44:47;;;;;;;46.25;24.17;;;;;;;;;;5090641;28;20578;-69
2022/03/03 05:47:14;;;;;;;45.63;23.98;;;;;;;;;;5090699;28;20046;-69
2022/03/03 05:49:43;;;;;;;51.30;24.83;;;;;;;;;;5090897;28;20059;-69
2022/03/03 05:52:09;;;;;;;44.55;24.20;;;;;;;;;;5091507;28;20036;-69
2022/03/03 05:54:36;;;;;;;46.90;23.65;;;;;;;;;;5090720;28;20137;-69
2022/03/03 05:57:02;;;;;;;47.30;24.92;;;;;;;;;;5090648;28;20169;-69
2022/03/03 05:59:30;;;;;;;44.85;24.65;;;;;;;;;;5089888;28;20044;-69
2022/03/03 06:01:57;;;;;;;43.15;22.10;;;;;;;;;;5090595;28;20403;-69
2022/03/03 06:04:27;;;;;;;46.05;23.48;;;;;;;;;;5090799;28;20036;-69
2022/03/03 06:06:54;;;;;;;46.97;24.45;;;;;;;;;;5089778;28;20043;-69
2022/03/03 06:09:25;;;;;;;42.67;22.75;;;;;;;;;;5090500;28;20059;-69
2022/03/03 06:12:10;;;;;;;45.60;23.92;;;;;;;;;;5090524;28;20048;-69
2022/03/03 06:14:38;;;;;;;43.67;22.05;;;;;;;;;;5089755;28;20650;-69
2022/03/03 06:17:04;;;;;;;45.38;23.25;;;;;;;;;;5091920;28;20046;-69
2022/03/03 06:19:31;;;;;;;42.00;22.08;;;;;;;;;;5089748;28;20040;-69
2022/03/03 06:21:58;;;;;;;42.90;22.50;;;;;;;;;;5089580;28;20062;-69
2022/03/03 06:24:24;;;;;;;49.58;25.08;;;;;;;;;;5090483;28;20040;-69
2022/03/03 06:26:50;;;;;;;42.45;21.83;;;;;;;;;;5076245;28;20471;-69
2022/03/03 06:29:16;;;;;;;42.33;22.77;;;;;;;;;;5069301;28;20159;-69
2022/03/03 06:31:42;;;;;;;46.40;23.05;;;;;;;;;;5071098;28;20055;-69
2022/03/03 06:34:08;;;;;;;41.25;22.42;;;;;;;;;;5070038;28;20437;-69
2022/03/03 06:36:34;;;;;;;40.00;20.40;;;;;;;;;;5069190;28;20117;-69
2022/03/03 06:39:00;;;;;;;38.83;20.05;;;;;;;;;;5069436;28;20044;-69
2022/03/03 06:41:28;;;;;;;43.20;22.50;;;;;;;;;;5068733;28;20092;-69
2022/03/03 06:43:54;;;;;;;39.38;21.50;;;;;;;;;;5068274;28;20075;-69
2022/03/03 06:46:21;;;;;;;40.78;22.58;;;;;;;;;;5068499;28;20072;-69
2022/03/03 06:48:47;;;;;;;44.75;22.77;;;;;;;;;;5068545;28;20063;-69
2022/03/03 06:51:17;;;;;;;44.38;22.98;;;;;;;;;;5068083;28;20045;-69
2022/03/03 06:53:45;;;;;;;40.05;21.45;;;;;;;;;;5068357;28;20075;-69
2022/03/03 06:56:12;;;;;;;41.38;20.10;;;;;;;;;;5068582;28;20506;-69
2022/03/03 06:58:38;;;;;;;37.80;20.50;;;;;;;;;;5068127;28;20036;-69
2022/03/03 07:01:07;;;;;;;41.10;22.10;;;;;;;;;;5068405;28;20036;-69
2022/03/03 07:03:33;;;;;;;39.20;22.63;;;;;;;;;;5068496;28;20417;-69
2022/03/03 07:06:00;;;;;;;41.63;22.23;;;;;;;;;;5068082;28;20032;-69
2022/03/03 07:08:26;;;;;;;43.97;22.35;;;;;;;;;;5068419;28;20045;-69
2022/03/03 07:10:52;;;;;;;36.22;20.70;;;;;;;;;;5068441;28;20087;-69
2022/03/03 07:13:19;;;;;;;39.83;21.27;;;;;;;;;;5067730;28;20076;-69
2022/03/03 07:15:49;;;;;;;41.05;21.83;;;;;;;;;;5068594;28;20505;-69
2022/03/03 07:18:20;;;;;;;36.08;20.35;;;;;;;;;;5070083;28;20471;-69
2022/03/03 07:20:46;;;;;;;37.88;21.08;;;;;;;;;;5067567;28;20384;-69
2022/03/03 07:23:27;;;;;;;35.42;21.30;;;;;;;;;;5051741;28;20040;-69
2022/03/03 07:25:56;;;;;;;34.50;18.48;;;;;;;;;;5073973;28;20082;-69
2022/03/03 07:28:22;;;;;;;38.63;20.55;;;;;;;;;;5087763;28;20461;-68
2022/03/03 07:30:49;;;;;;;40.72;21.20;;;;;;;;;;5091043;28;20047;-68
2022/03/03 07:33:36;;;;;;;39.75;22.30;;;;;;;;;;5094855;28;20388;-67
2022/03/03 07:36:03;;;;;;;35.78;20.33;;;;;;;;;;5091057;28;20047;-68
2022/03/03 07:38:33;;;;;;;50.25;22.95;;;;;;;;;;5071709;28;20078;-70
2022/03/03 07:41:00;;;;;;;38.65;21.00;;;;;;;;;;5091986;28;20321;-73
2022/03/03 07:43:26;;;;;;;37.38;21.05;;;;;;;;;;5087443;28;20488;-70
2022/03/03 07:45:52;;;;;;;39.63;21.38;;;;;;;;;;5092803;28;20124;-71
2022/03/03 07:48:22;;;;;;;39.83;21.05;;;;;;;;;;5091922;28;20086;-74
2022/03/03 07:50:48;;;;;;;38.97;20.73;;;;;;;;;;5091606;28;20044;-72
2022/03/03 07:53:15;;;;;;;34.88;20.13;;;;;;;;;;5091980;28;20035;-73
2022/03/03 07:55:46;;;;;;;40.70;20.77;;;;;;;;;;5091947;28;20398;-71
2022/03/03 07:58:16;;;;;;;39.47;21.10;;;;;;;;;;5092026;28;20067;-70
2022/03/03 08:00:46;;;;;;;39.40;21.70;;;;;;;;;;5093788;28;20040;-75
2022/03/03 08:03:14;;;;;;;38.20;19.95;;;;;;;;;;5091325;28;20040;-73
2022/03/03 08:05:43;;;;;;;41.10;20.52;;;;;;;;;;5074421;28;20036;-71
2022/03/03 08:08:11;;;;;;;35.17;20.35;;;;;;;;;;5092163;28;20043;-71
2022/03/03 08:10:40;;;;;;;36.80;20.95;;;;;;;;;;5091742;28;20043;-71
2022/03/03 08:13:07;;;;;;;35.80;20.90;;;;;;;;;;5090926;28;20048;-68
2022/03/03 08:15:35;;;;;;;39.88;21.02;;;;;;;;;;5091428;28;20170;-71
2022/03/03 08:18:01;;;;;;;40.13;20.60;;;;;;;;;;5090876;28;20051;-70
2022/03/03 08:20:28;;;;;;;38.47;21.13;;;;;;;;;;5090917;28;20044;-71
2022/03/03 08:22:54;;;;;;;41.67;21.40;;;;;;;;;;5091723;28;20039;-71
2022/03/03 08:25:22;;;;;;;34.85;19.98;;;;;;;;;;5091646;28;20040;-72
2022/03/03 08:27:48;;;;;;;36.22;20.55;;;;;;;;;;5091125;28;20474;-69
2022/03/03 08:30:14;;;;;;;36.47;19.27;;;;;;;;;;5074961;28;20052;-69
2022/03/03 08:32:59;;;;;;;33.78;19.67;;;;;;;;;;5093621;28;20052;-71
2022/03/03 08:35:27;;;;;;;38.70;20.63;;;;;;;;;;5090998;28;20101;-71
2022/03/03 08:38:07;;;;;;;37.00;20.58;;;;;;;;;;5091803;28;20059;-71
2022/03/03 08:40:34;;;;;;;36.83;20.40;;;;;;;;;;5074019;28;20451;-70
2022/03/03 08:43:01;;;;;;;35.58;19.05;;;;;;;;;;5073915;28;20416;-68
2022/03/03 08:45:30;;;;;;;34.92;19.33;;;;;;;;;;5091766;28;20052;-72
2022/03/03 08:48:01;;;;;;;36.05;19.05;;;;;;;;;;5090917;28;20032;-70
2022/03/03 08:50:28;;;;;;;32.83;17.25;;;;;;;;;;5074261;28;20032;-71
2022/03/03 08:52:57;;;;;;;34.30;18.73;;;;;;;;;;5091684;28;20101;-74
2022/03/03 08:55:24;;;;;;;34.17;18.88;;;;;;;;;;5092513;28;20040;-73
2022/03/03 08:57:51;;;;;;;27.92;17.75;;;;;;;;;;5090958;28;20048;-71
2022/03/03 09:00:17;;;;;;;32.67;18.50;;;;;;;;;;5091327;28;20559;-73
2022/03/03 09:02:43;;;;;;;33.03;17.92;;;;;;;;;;5074498;28;20050;-72
2022/03/03 09:05:10;;;;;;;32.60;18.38;;;;;;;;;;5090299;28;20036;-69
2022/03/03 09:07:37;;;;;;;33.42;19.50;;;;;;;;;;5092159;28;20892;-66
2022/03/03 09:10:03;;;;;;;33.92;19.02;;;;;;;;;;5091949;28;20086;-73
2022/03/03 09:12:30;;;;;;;27.73;18.30;;;;;;;;;;5090397;28;20097;-71
2022/03/03 09:14:56;;;;;;;37.00;19.10;;;;;;;;;;5091740;28;20040;-71
2022/03/03 09:17:22;;;;;;;28.95;17.58;;;;;;;;;;5075305;28;20055;-71
2022/03/03 09:19:48;;;;;;;35.35;19.27;;;;;;;;;;5074018;28;20040;-70
2022/03/03 09:22:14;;;;;;;31.92;18.55;;;;;;;;;;5091689;28;20460;-72
2022/03/03 09:24:40;;;;;;;30.30;18.70;;;;;;;;;;5091589;28;20123;-72
2022/03/03 09:27:07;;;;;;;31.10;17.25;;;;;;;;;;5078937;28;20700;-70
2022/03/03 09:29:33;;;;;;;29.52;17.05;;;;;;;;;;5090401;28;20060;-72
2022/03/03 09:32:00;;;;;;;31.30;17.73;;;;;;;;;;5090105;28;20557;-71
2022/03/03 09:34:26;;;;;;;30.65;17.77;;;;;;;;;;5090356;28;20040;-68
2022/03/03 09:36:52;;;;;;;28.80;18.08;;;;;;;;;;5090817;28;20405;-67
2022/03/03 09:39:18;;;;;;;29.83;17.92;;;;;;;;;;5092001;28;20486;-68
2022/03/03 09:41:44;;;;;;;28.75;17.83;;;;;;;;;;5090103;28;20036;-66
2022/03/03 09:44:13;;;;;;;27.75;16.85;;;;;;;;;;5090285;28;20348;-65
2022/03/03 09:46:39;;;;;;;30.65;18.38;;;;;;;;;;5091802;28;20040;-67
2022/03/03 09:49:06;;;;;;;29.40;17.80;;;;;;;;;;5089184;28;20036;-69
2022/03/03 09:51:32;;;;;;;29.63;18.02;;;;;;;;;;5089748;28;20394;-68
2022/03/03 09:53:59;;;;;;;28.05;18.42;;;;;;;;;;5089304;28;20047;-71
2022/03/03 09:56:25;;;;;;;26.20;17.67;;;;;;;;;;5089870;28;20071;-71
2022/03/03 09:58:51;;;;;;;28.65;17.48;;;;;;;;;;5090709;28;20036;-70
2022/03/03 10:01:17;;;;;;;26.27;16.80;;;;;;;;;;5073807;28;20063;-72
2022/03/03 10:03:47;;;;;;;25.63;16.83;;;;;;;;;;5072492;28;20039;-71
2022/03/03 10:06:13;;;;;;;26.38;16.63;;;;;;;;;;5089680;28;20040;-70
2022/03/03 10:08:40;;;;;;;26.50;16.55;;;;;;;;;;5089381;28;20032;-66
2022/03/03 10:11:08;;;;;;;27.65;16.58;;;;;;;;;;5072261;28;20406;-68
2022/03/03 10:13:54;;;;;;;27.60;16.25;;;;;;;;;;5089258;28;20079;-70
2022/03/03 10:16:23;;;;;;;27.20;16.63;;;;;;;;;;5069888;28;20056;-70
2022/03/03 10:18:53;;;;;;;25.73;17.50;;;;;;;;;;5051935;28;20063;-70
2022/03/03 10:21:20;;;;;;;28.73;16.65;;;;;;;;;;5071429;28;20686;-71
2022/03/03 10:23:46;;;;;;;27.88;16.27;;;;;;;;;;5070997;28;20032;-72
2022/03/03 10:26:12;;;;;;;24.75;16.55;;;;;;;;;;5059991;28;20052;-74
2022/03/03 10:28:39;;;;;;;27.73;17.08;;;;;;;;;;5070975;28;20069;-70
2022/03/03 10:31:06;;;;;;;24.95;17.38;;;;;;;;;;5071330;28;20052;-68
2022/03/03 10:33:35;;;;;;;26.17;17.40;;;;;;;;;;5072307;28;20040;-69
2022/03/03 10:36:03;;;;;;;22.83;16.00;;;;;;;;;;5071406;28;20557;-70
2022/03/03 10:38:30;;;;;;;28.27;16.85;;;;;;;;;;5071810;28;20561;-71
2022/03/03 10:40:57;;;;;;;26.27;16.48;;;;;;;;;;5070285;28;20120;-71
2022/03/03 10:43:23;;;;;;;23.45;16.33;;;;;;;;;;5054655;28;20574;-67
2022/03/03 10:45:55;;;;;;;23.40;16.52;;;;;;;;;;5071580;28;20458;-70
2022/03/03 10:48:22;;;;;;;27.25;16.75;;;;;;;;;;5086727;28;20131;-67
2022/03/03 10:50:49;;;;;;;24.33;16.13;;;;;;;;;;5089379;28;20126;-68
2022/03/03 10:53:19;;;;;;;26.38;16.80;;;;;;;;;;5088676;28;20040;-67
2022/03/03 10:56:01;;;;;;;28.30;16.08;;;;;;;;;;5072026;28;20046;-69
2022/03/03 10:58:44;;;;;;;23.60;15.00;;;;;;;;;;5089544;28;20135;-69
2022/03/03 11:01:10;;;;;;;;;;;;;;;;;;5089457;28;20098;-67
2022/03/03 11:03:37;;;;;;;21.42;14.32;;;;;;;;;;5088222;28;19916;-69
2022/03/03 11:06:03;;;;;;;22.85;15.45;;;;;;;;;;5093665;28;20536;-68
2022/03/03 11:08:30;;;;;;;26.98;16.23;;;;;;;;;;5093217;28;20043;-69
2022/03/03 11:10:56;;;;;;;23.75;16.05;;;;;;;;;;5092548;28;20040;-68
2022/03/03 11:13:22;;;;;;;23.83;16.10;;;;;;;;;;5075806;28;20394;-67
2022/03/03 11:15:49;;;;;;;21.83;15.43;;;;;;;;;;5093303;28;20176;-71
2022/03/03 11:18:19;;;;;;;23.05;15.63;;;;;;;;;;5092687;28;20047;-70
2022/03/03 11:20:46;;;;;;;22.00;14.57;;;;;;;;;;5092263;28;20399;-69
2022/03/03 11:23:12;;;;;;;22.25;14.25;;;;;;;;;;5092406;28;20032;-68
2022/03/03 11:25:39;;;;;;;24.67;15.70;;;;;;;;;;5093158;28;20056;-68
2022/03/03 11:28:09;;;;;;;21.75;14.85;;;;;;;;;;5094076;28;20089;-67
2022/03/03 11:30:36;;;;;;;21.92;14.70;;;;;;;;;;5094645;28;20052;-67
2022/03/03 11:33:31;;;;;;;19.42;13.27;;;;;;;;;;5092769;28;20046;-67
2022/03/03 11:36:01;;;;;;;18.52;12.80;;;;;;;;;;5093765;28;20423;-67
2022/03/03 11:38:43;;;;;;;18.58;12.73;;;;;;;;;;5094164;28;20036;-67
2022/03/03 11:41:09;;;;;;;21.53;13.27;;;;;;;;;;5093349;28;20414;-67
2022/03/03 11:43:47;;;;;;;22.83;13.98;;;;;;;;;;5093519;28;20051;-67
2022/03/03 11:46:13;;;;;;;21.42;13.20;;;;;;;;;;5093444;28;20047;-67
2022/03/03 11:48:39;;;;;;;20.63;13.43;;;;;;;;;;5091486;28;20458;-66
2022/03/03 11:51:24;;;;;;;21.88;12.35;;;;;;;;;;5093659;28;20478;-66
2022/03/03 11:53:51;;;;;;;19.63;12.18;;;;;;;;;;5092373;28;20056;-66
2022/03/03 11:56:17;;;;;;;19.70;12.27;;;;;;;;;;5092854;28;20137;-66
2022/03/03 11:58:44;;;;;;;15.05;10.55;;;;;;;;;;5093088;28;20036;-66
2022/03/03 12:01:14;;;;;;;17.80;11.50;;;;;;;;;;5092753;28;20431;-65
2022/03/03 12:04:01;;;;;;;17.20;11.45;;;;;;;;;;5092601;28;20394;-67
2022/03/03 12:06:37;;;;;;;18.23;12.25;;;;;;;;;;5093746;28;20042;-70
2022/03/03 12:09:25;;;;;;;20.17;12.68;;;;;;;;;;5092984;28;20082;-71
2022/03/03 12:12:06;;;;;;;17.35;11.70;;;;;;;;;;5092184;28;20044;-71
2022/03/03 12:14:34;;;;;;;18.70;12.27;;;;;;;;;;5071988;28;20475;-68
2022/03/03 12:17:19;;;;;;;17.80;12.02;;;;;;;;;;5060624;28;20645;-70
2022/03/03 12:19:45;;;;;;;18.35;11.45;;;;;;;;;;5092412;28;20040;-70
2022/03/03 12:22:25;;;;;;;17.60;12.70;;;;;;;;;;5091855;28;20383;-69
2022/03/03 12:24:52;;;;;;;17.90;11.93;;;;;;;;;;5091133;28;20111;-70
2022/03/03 12:27:18;;;;;;;20.02;11.73;;;;;;;;;;5091351;28;20072;-69
2022/03/03 12:29:49;;;;;;;15.45;11.27;;;;;;;;;;5091444;28;20058;-67
2022/03/03 12:32:33;;;;;;;17.30;11.10;;;;;;;;;;5092283;28;20382;-70
2022/03/03 12:35:09;;;;;;;14.55;10.73;;;;;;;;;;5093035;28;20770;-68
2022/03/03 12:37:40;;;;;;;15.48;10.70;;;;;;;;;;5091919;28;20036;-70
2022/03/03 12:40:06;;;;;;;15.07;10.95;;;;;;;;;;5091918;28;20036;-70
2022/03/03 12:42:33;;;;;;;15.82;10.05;;;;;;;;;;5091552;28;20040;-69
2022/03/03 12:45:01;;;;;;;16.85;11.15;;;;;;;;;;5091009;28;20036;-70
2022/03/03 12:47:34;;;;;;;15.50;11.13;;;;;;;;;;5091983;28;20036;-70
2022/03/03 12:50:08;;;;;;;14.45;10.00;;;;;;;;;;5091580;28;20463;-68
2022/03/03 12:52:35;;;;;;;15.48;9.70;;;;;;;;;;5093281;28;20052;-68
2022/03/03 12:55:01;;;;;;;16.63;11.07;;;;;;;;;;5092712;28;20058;-69
2022/03/03 12:57:30;;;;;;;12.57;9.82;;;;;;;;;;5082977;28;20041;-68
2022/03/03 12:59:56;;;;;;;14.70;10.38;;;;;;;;;;5071664;28;20533;-68
2022/03/03 13:02:22;;;;;;;15.48;10.63;;;;;;;;;;5088709;28;20123;-68
2022/03/03 13:04:48;;;;;;;17.15;11.13;;;;;;;;;;5092390;28;20064;-68
2022/03/03 13:07:17;;;;;;;14.52;10.63;;;;;;;;;;5092707;28;20040;-67
2022/03/03 13:09:53;;;;;;;14.63;9.85;;;;;;;;;;5092857;28;20047;-68
2022/03/03 13:12:19;;;;;;;13.05;10.18;;;;;;;;;;5093234;28;20468;-67
2022/03/03 13:14:54;;;;;;;14.75;11.40;;;;;;;;;;5093125;28;20035;-67
2022/03/03 13:17:20;;;;;;;15.80;11.27;;;;;;;;;;5092099;28;20413;-69
2022/03/03 13:19:47;;;;;;;15.02;10.10;;;;;;;;;;5092828;28;20040;-70
2022/03/03 13:22:13;;;;;;;14.13;9.95;;;;;;;;;;5092524;28;20040;-68
2022/03/03 13:24:39;;;;;;;15.07;9.40;;;;;;;;;;5090956;28;20517;-69
2022/03/03 13:27:05;;;;;;;13.45;9.50;;;;;;;;;;5092835;28;20402;-71
2022/03/03 13:29:32;;;;;;;11.27;8.98;;;;;;;;;;5092144;28;20066;-70
2022/03/03 13:31:59;;;;;;;12.07;8.45;;;;;;;;;;5092493;28;20079;-69
2022/03/03 13:34:26;;;;;;;12.98;8.40;;;;;;;;;;5092294;28;20085;-70
2022/03/03 13:36:54;;;;;;;11.73;8.20;;;;;;;;;;5091190;28;20554;-68
2022/03/03 13:39:39;;;;;;;13.63;9.63;;;;;;;;;;5091796;28;20402;-70
2022/03/03 13:42:09;;;;;;;14.23;9.65;;;;;;;;;;5092070;28;20044;-68
2022/03/03 13:44:38;;;;;;;13.60;8.55;;;;;;;;;;5091929;28;20403;-69
2022/03/03 13:47:09;;;;;;;14.73;9.85;;;;;;;;;;5090147;28;20044;-68
2022/03/03 13:49:35;;;;;;;13.73;9.70;;;;;;;;;;5091950;28;20101;-68
2022/03/03 13:52:08;;;;;;;12.52;9.23;;;;;;;;;;5092347;28;20093;-68
2022/03/03 13:54:43;;;;;;;13.38;9.82;;;;;;;;;;5091125;28;20044;-71
2022/03/03 13:57:29;;;;;;;12.90;9.05;;;;;;;;;;5091859;28;20039;-69
2022/03/03 13:59:57;;;;;;;13.30;9.60;;;;;;;;;;5092084;28;20040;-69
2022/03/03 14:02:23;;;;;;;11.45;8.85;;;;;;;;;;5083471;28;20467;-69
2022/03/03 14:04:58;;;;;;;13.18;9.70;;;;;;;;;;5082974;28;20089;-68
2022/03/03 14:07:28;;;;;;;13.65;9.27;;;;;;;;;;5092001;28;20513;-68
2022/03/03 14:10:01;;;;;;;12.38;9.27;;;;;;;;;;5090806;28;20071;-69
2022/03/03 14:12:27;;;;;;;12.57;8.98;;;;;;;;;;5090413;28;20040;-67
2022/03/03 14:14:53;;;;;;;12.60;9.80;;;;;;;;;;5091748;28;20036;-70
2022/03/03 14:17:19;;;;;;;14.00;9.13;;;;;;;;;;5090781;28;20044;-69
2022/03/03 14:19:46;;;;;;;14.23;9.88;;;;;;;;;;5091689;28;20040;-70
2022/03/03 14:22:16;;;;;;;13.70;10.00;;;;;;;;;;5091289;28;20040;-71